Forseti — V2PV4 — position and weather

sailwx.info

Track history (hours):
 
Tides and Currents Weather Stations Pressure Air Temp Water Temp Dewpoint Dewpoint Depression Visibility Wind Speed Wind Dir Waves Ship Positions

Forseti

Last reported at 2016-Jun-27 04:32 UTC. Time now 2016-Jun-27 06:02 UTC.
Position N 50°43' W 001°59'.

Length 85 m; draft 5.3 m.

Type: Cargo ship. MMSI: 304010297.

Date/timePositionNaut miles runAvg speedWind from/ knotsBaromVisibWave heightAir tempDewpointWater temp
2016-Jun-27 04:32N 50°43' W 001°59'0 0.0
2016-Jun-27 03:32N 50°43' W 001°59'0 0.0
2016-Jun-27 02:32N 50°43' W 001°59'0 0.0
2016-Jun-27 01:32N 50°43' W 001°59'0 0.0
2016-Jun-27 00:29N 50°43' W 001°59'0 0.0
2016-Jun-26 23:32N 50°43' W 001°59'0 0.0
2016-Jun-26 22:32N 50°43' W 001°59'0 0.0
2016-Jun-26 21:32N 50°43' W 001°59'0 0.0
2016-Jun-26 20:31N 50°43' W 001°59'0 0.0
2016-Jun-26 19:31N 50°43' W 001°59'0 0.0
2016-Jun-26 18:31N 50°43' W 001°59'0 0.0
2016-Jun-26 17:28N 50°43' W 001°59'0 0.0
2016-Jun-26 16:25N 50°43' W 001°59'0 0.0
2016-Jun-26 15:31N 50°43' W 001°59'0 0.0
2016-Jun-26 14:31N 50°43' W 001°59'0 0.0
2016-Jun-26 13:31N 50°43' W 001°59'0 0.0
2016-Jun-26 12:28N 50°43' W 001°59'0 0.0
2016-Jun-26 11:31N 50°43' W 001°59'0 0.0
2016-Jun-26 10:31N 50°43' W 001°59'0 0.0
2016-Jun-26 09:31N 50°43' W 001°59'0 0.0
2016-Jun-26 08:31N 50°43' W 001°59'0 0.0
2016-Jun-26 07:31N 50°43' W 001°59'0 0.0
2016-Jun-26 06:31N 50°43' W 001°59'0 0.0
2016-Jun-26 05:31N 50°43' W 001°59'0 0.0
2016-Jun-26 04:31N 50°43' W 001°59'0 0.0
2016-Jun-26 03:31N 50°43' W 001°59'0 0.0
2016-Jun-26 02:31N 50°43' W 001°59'0 0.0
2016-Jun-26 01:31N 50°43' W 001°59'0 0.0
2016-Jun-26 00:31N 50°43' W 001°59'0 0.0
2016-Jun-25 23:28N 50°43' W 001°59'0 0.0
2016-Jun-25 22:31N 50°43' W 001°59'0 0.0
2016-Jun-25 21:31N 50°43' W 001°59'0 0.0
2016-Jun-25 20:31N 50°43' W 001°59'0 0.0
2016-Jun-25 19:25N 50°43' W 001°59'0 0.0
2016-Jun-25 18:31N 50°43' W 001°59'0 0.0
2016-Jun-25 17:28N 50°43' W 001°59'0 0.0
2016-Jun-25 16:28N 50°43' W 001°59'0 0.0
2016-Jun-25 15:28N 50°43' W 001°59'0 0.0
2016-Jun-25 14:28N 50°43' W 001°59'0 0.0
2016-Jun-25 13:31N 50°43' W 001°59'0 0.0
2016-Jun-25 12:25N 50°43' W 001°59'0 0.6
2016-Jun-25 11:33N 50°42' W 001°59'4 4.1
2016-Jun-25 10:32N 50°39' W 001°54'0 0.0
2016-Jun-25 09:32N 50°39' W 001°54'0 0.0
2016-Jun-25 08:32N 50°39' W 001°54'0 0.0
2016-Jun-25 07:32N 50°39' W 001°54'0 0.1
2016-Jun-25 06:32N 50°39' W 001°54'0 0.0
2016-Jun-25 05:32N 50°39' W 001°54'0 0.0
2016-Jun-25 04:26N 50°39' W 001°54'0 0.0
2016-Jun-25 03:32N 50°39' W 001°54'0 0.0
2016-Jun-25 02:32N 50°39' W 001°54'0 0.0
2016-Jun-25 01:32N 50°39' W 001°54'0 0.1
2016-Jun-25 00:31N 50°39' W 001°54'0 0.0
2016-Jun-24 23:31N 50°39' W 001°54'0 0.0
2016-Jun-24 22:31N 50°39' W 001°54'0 0.0
2016-Jun-24 21:31N 50°39' W 001°54'0 0.0
2016-Jun-24 20:31N 50°39' W 001°54'0 0.0
2016-Jun-24 19:31N 50°39' W 001°54'0 0.1
2016-Jun-24 18:31N 50°39' W 001°54'8 8.1
2016-Jun-24 17:33N 50°36' W 001°43'1611.6
2016-Jun-24 16:10N 50°30' W 001°19'912.4
2016-Jun-24 15:28N 50°30' W 001°06'1211.6
2016-Jun-24 14:26N 50°31' W 000°47'910.0
2016-Jun-24 13:33N 50°31' W 000°33'8 8.4
2016-Jun-24 12:33N 50°32' W 000°20'8 7.6
2016-Jun-24 11:32N 50°32' W 000°08'7 7.2
2016-Jun-24 10:34N 50°33' E 000°03'8 7.7
2016-Jun-24 09:33N 50°35' E 000°15'49 9.8
2016-Jun-24 04:33N 51°01' E 001°21'8 7.7
2016-Jun-24 03:33N 51°06' E 001°31'6 6.2
2016-Jun-24 02:33N 51°10' E 001°38'7 6.6
2016-Jun-24 01:33N 51°15' E 001°46'8 8.4
2016-Jun-24 00:33N 51°22' E 001°51'1010.3
2016-Jun-23 23:33N 51°31' E 002°01'1111.4
2016-Jun-23 22:33N 51°39' E 002°14'447 8.7
2016-Jun-21 19:23N 57°40' E 009°49'7 8.3
2016-Jun-21 18:32N 57°43' E 010°00'8 8.3
2016-Jun-21 17:33N 57°47' E 010°14'8 7.8
2016-Jun-21 16:33N 57°49' E 010°28'8 7.6
2016-Jun-21 15:33N 57°49' E 010°42'8 7.9
2016-Jun-21 14:33N 57°44' E 010°54'9 8.9
2016-Jun-21 13:33N 57°38' E 011°07'9 9.2
2016-Jun-21 12:33N 57°32' E 011°19'10 9.7
2016-Jun-21 11:33N 57°24' E 011°29'1010.2
2016-Jun-21 10:33N 57°14' E 011°36'1010.1
2016-Jun-21 09:33N 57°05' E 011°42'9 9.1
2016-Jun-21 08:33N 56°56' E 011°49'9 8.6
2016-Jun-21 07:33N 56°48' E 011°54'18 9.1
2016-Jun-21 05:33N 56°30' E 012°01'20 9.0
2016-Jun-21 03:19N 56°13' E 012°19'811.2
2016-Jun-21 02:33N 56°08' E 012°31'1111.0
2016-Jun-21 01:33N 55°59' E 012°42'1010.1
2016-Jun-21 00:33N 55°49' E 012°43'1010.3
2016-Jun-20 23:33N 55°38' E 012°42'1010.2
2016-Jun-20 22:33N 55°28' E 012°43'10 9.7
2016-Jun-20 21:33N 55°18' E 012°42'9 9.3
2016-Jun-20 20:33N 55°16' E 012°58'9 9.5
2016-Jun-20 19:33N 55°15' E 013°15'10 9.8
2016-Jun-20 18:33N 55°15' E 013°32'1010.0
2016-Jun-20 17:33N 55°14' E 013°49'1010.3
2016-Jun-20 16:33N 55°14' E 014°08'9 8.8
2016-Jun-20 15:33N 55°18' E 014°21'10 9.8
2016-Jun-20 14:34N 55°25' E 014°32'10 9.5
2016-Jun-20 13:33N 55°31' E 014°45'9 9.4
2016-Jun-20 12:33N 55°35' E 015°00'9 9.1
2016-Jun-20 11:33N 55°40' E 015°14'  
Track history (hours):
 
Tides and Currents Weather Stations Pressure Air Temp Water Temp Dewpoint Dewpoint Depression Visibility Wind Speed Wind Dir Waves Ship Positions

Forseti

Last reported at 2016-Jun-27 04:32 UTC. Time now 2016-Jun-27 06:02 UTC.
Position N 50°43' W 001°59'.

Length 85 m; draft 5.3 m.

Type: Cargo ship. MMSI: 304010297.

Date/timePositionNaut miles runAvg speedWind from/ knotsBaromVisibWave heightAir tempDewpointWater temp
2016-Jun-27 04:32N 50°43' W 001°59'0 0.0
2016-Jun-27 03:32N 50°43' W 001°59'0 0.0
2016-Jun-27 02:32N 50°43' W 001°59'0 0.0
2016-Jun-27 01:32N 50°43' W 001°59'0 0.0
2016-Jun-27 00:29N 50°43' W 001°59'0 0.0
2016-Jun-26 23:32N 50°43' W 001°59'0 0.0
2016-Jun-26 22:32N 50°43' W 001°59'0 0.0
2016-Jun-26 21:32N 50°43' W 001°59'0 0.0
2016-Jun-26 20:31N 50°43' W 001°59'0 0.0
2016-Jun-26 19:31N 50°43' W 001°59'0 0.0
2016-Jun-26 18:31N 50°43' W 001°59'0 0.0
2016-Jun-26 17:28N 50°43' W 001°59'0 0.0
2016-Jun-26 16:25N 50°43' W 001°59'0 0.0
2016-Jun-26 15:31N 50°43' W 001°59'0 0.0
2016-Jun-26 14:31N 50°43' W 001°59'0 0.0
2016-Jun-26 13:31N 50°43' W 001°59'0 0.0
2016-Jun-26 12:28N 50°43' W 001°59'0 0.0
2016-Jun-26 11:31N 50°43' W 001°59'0 0.0
2016-Jun-26 10:31N 50°43' W 001°59'0 0.0
2016-Jun-26 09:31N 50°43' W 001°59'0 0.0
2016-Jun-26 08:31N 50°43' W 001°59'0 0.0
2016-Jun-26 07:31N 50°43' W 001°59'0 0.0
2016-Jun-26 06:31N 50°43' W 001°59'0 0.0
2016-Jun-26 05:31N 50°43' W 001°59'0 0.0
2016-Jun-26 04:31N 50°43' W 001°59'0 0.0
2016-Jun-26 03:31N 50°43' W 001°59'0 0.0
2016-Jun-26 02:31N 50°43' W 001°59'0 0.0
2016-Jun-26 01:31N 50°43' W 001°59'0 0.0
2016-Jun-26 00:31N 50°43' W 001°59'0 0.0
2016-Jun-25 23:28N 50°43' W 001°59'0 0.0
2016-Jun-25 22:31N 50°43' W 001°59'0 0.0
2016-Jun-25 21:31N 50°43' W 001°59'0 0.0
2016-Jun-25 20:31N 50°43' W 001°59'0 0.0
2016-Jun-25 19:25N 50°43' W 001°59'0 0.0
2016-Jun-25 18:31N 50°43' W 001°59'0 0.0
2016-Jun-25 17:28N 50°43' W 001°59'0 0.0
2016-Jun-25 16:28N 50°43' W 001°59'0 0.0
2016-Jun-25 15:28N 50°43' W 001°59'0 0.0
2016-Jun-25 14:28N 50°43' W 001°59'0 0.0
2016-Jun-25 13:31N 50°43' W 001°59'0 0.0
2016-Jun-25 12:25N 50°43' W 001°59'0 0.6
2016-Jun-25 11:33N 50°42' W 001°59'4 4.1
2016-Jun-25 10:32N 50°39' W 001°54'0 0.0
2016-Jun-25 09:32N 50°39' W 001°54'0 0.0
2016-Jun-25 08:32N 50°39' W 001°54'0 0.0
2016-Jun-25 07:32N 50°39' W 001°54'0 0.1
2016-Jun-25 06:32N 50°39' W 001°54'0 0.0
2016-Jun-25 05:32N 50°39' W 001°54'0 0.0
2016-Jun-25 04:26N 50°39' W 001°54'0 0.0
2016-Jun-25 03:32N 50°39' W 001°54'0 0.0
2016-Jun-25 02:32N 50°39' W 001°54'0 0.0
2016-Jun-25 01:32N 50°39' W 001°54'0 0.1
2016-Jun-25 00:31N 50°39' W 001°54'0 0.0
2016-Jun-24 23:31N 50°39' W 001°54'0 0.0
2016-Jun-24 22:31N 50°39' W 001°54'0 0.0
2016-Jun-24 21:31N 50°39' W 001°54'0 0.0
2016-Jun-24 20:31N 50°39' W 001°54'0 0.0
2016-Jun-24 19:31N 50°39' W 001°54'0 0.1
2016-Jun-24 18:31N 50°39' W 001°54'8 8.1
2016-Jun-24 17:33N 50°36' W 001°43'1611.6
2016-Jun-24 16:10N 50°30' W 001°19'912.4
2016-Jun-24 15:28N 50°30' W 001°06'1211.6
2016-Jun-24 14:26N 50°31' W 000°47'910.0
2016-Jun-24 13:33N 50°31' W 000°33'8 8.4
2016-Jun-24 12:33N 50°32' W 000°20'8 7.6
2016-Jun-24 11:32N 50°32' W 000°08'7 7.2
2016-Jun-24 10:34N 50°33' E 000°03'8 7.7
2016-Jun-24 09:33N 50°35' E 000°15'49 9.8
2016-Jun-24 04:33N 51°01' E 001°21'8 7.7
2016-Jun-24 03:33N 51°06' E 001°31'6 6.2
2016-Jun-24 02:33N 51°10' E 001°38'7 6.6
2016-Jun-24 01:33N 51°15' E 001°46'8 8.4
2016-Jun-24 00:33N 51°22' E 001°51'1010.3
2016-Jun-23 23:33N 51°31' E 002°01'1111.4
2016-Jun-23 22:33N 51°39' E 002°14'447 8.7
2016-Jun-21 19:23N 57°40' E 009°49'7 8.3
2016-Jun-21 18:32N 57°43' E 010°00'8 8.3
2016-Jun-21 17:33N 57°47' E 010°14'8 7.8
2016-Jun-21 16:33N 57°49' E 010°28'8 7.6
2016-Jun-21 15:33N 57°49' E 010°42'8 7.9
2016-Jun-21 14:33N 57°44' E 010°54'9 8.9
2016-Jun-21 13:33N 57°38' E 011°07'9 9.2
2016-Jun-21 12:33N 57°32' E 011°19'10 9.7
2016-Jun-21 11:33N 57°24' E 011°29'1010.2
2016-Jun-21 10:33N 57°14' E 011°36'1010.1
2016-Jun-21 09:33N 57°05' E 011°42'9 9.1
2016-Jun-21 08:33N 56°56' E 011°49'9 8.6
2016-Jun-21 07:33N 56°48' E 011°54'18 9.1
2016-Jun-21 05:33N 56°30' E 012°01'20 9.0
2016-Jun-21 03:19N 56°13' E 012°19'811.2
2016-Jun-21 02:33N 56°08' E 012°31'1111.0
2016-Jun-21 01:33N 55°59' E 012°42'1010.1
2016-Jun-21 00:33N 55°49' E 012°43'1010.3
2016-Jun-20 23:33N 55°38' E 012°42'1010.2
2016-Jun-20 22:33N 55°28' E 012°43'10 9.7
2016-Jun-20 21:33N 55°18' E 012°42'9 9.3
2016-Jun-20 20:33N 55°16' E 012°58'9 9.5
2016-Jun-20 19:33N 55°15' E 013°15'10 9.8
2016-Jun-20 18:33N 55°15' E 013°32'1010.0
2016-Jun-20 17:33N 55°14' E 013°49'1010.3
2016-Jun-20 16:33N 55°14' E 014°08'9 8.8
2016-Jun-20 15:33N 55°18' E 014°21'10 9.8
2016-Jun-20 14:34N 55°25' E 014°32'10 9.5
2016-Jun-20 13:33N 55°31' E 014°45'9 9.4
2016-Jun-20 12:33N 55°35' E 015°00'9 9.1
2016-Jun-20 11:33N 55°40' E 015°14'  

Dump ship's entire track history